Port Canaveral, Florida
Current Conditions -  °F | °C
As of 4:58 PM on Friday 19 Dec 2014 (Local Time) from KXMR Reporting Station
Clear Clear  
Wind Chill: 67°   Ceiling: Unl
Heat Index: 67°   Visibility: 10mi
Dew Point: 57°   Wind: 3mph
Humidity: 70%   Direction: 20°NNE
Pressure: 30.06"   Gusts: NA
Location:  28.3971°N, 80.6086°W
Report Text: KXMR 192158Z AUTO 02003KT 10SM CLR 19/14 A3006 RMK AO2 SLP182 T01930138
Loading
Personal Weather Stations






























Interactive Weather Map New forecast layout! Learn more

10-Day Weather Forecast

Advertisements
Track Severe Weather on mobile